Csorna, Hungary
Current Conditions -  °F | °C
As of 1:45 AM on Thursday 29 Jan 2015 (Local Time) from LHPR Reporting Station
Clear Clear  
Wind Chill: 24°   Ceiling: Unl
Heat Index: 32°   Visibility: 6mi
Dew Point: 25°   Wind: 9mph
Humidity: 75%   Direction: 190°S
Pressure: 29.8"   Gusts: NA
Location:  47.61°N, 17.25°E
Report Text: LHPR 282345Z 19008KT CAVOK M00/M04 Q1009
Loading
Personal Weather Stations






























Interactive Weather Map New forecast layout! Learn more

10-Day Weather Forecast

Advertisements
Track Severe Weather on mobile